createdAt,value
2023-02-04T00:02:01.910Z,12.90
2023-02-04T00:07:03.914Z,12.80
2023-02-04T00:12:06.008Z,12.80
2023-02-04T00:17:10.216Z,12.80
2023-02-04T00:22:12.244Z,12.80
2023-02-04T00:27:14.635Z,12.80
2023-02-04T00:32:16.681Z,12.80
2023-02-04T00:37:18.897Z,12.80
2023-02-04T00:42:20.966Z,12.80
2023-02-04T00:47:22.956Z,12.80
2023-02-04T00:52:24.956Z,12.80
2023-02-04T00:57:27.838Z,12.80
2023-02-04T01:02:29.858Z,12.70
2023-02-04T01:07:32.421Z,12.70
2023-02-04T01:12:34.690Z,12.70
2023-02-04T01:17:36.915Z,12.90
2023-02-04T01:22:38.979Z,12.70
2023-02-04T01:27:41.180Z,12.70
2023-02-04T01:32:43.243Z,12.40
2023-02-04T01:37:45.314Z,12.60
2023-02-04T01:42:49.202Z,12.60
2023-02-04T01:47:51.375Z,12.60
2023-02-04T01:52:53.381Z,12.50
2023-02-04T01:57:58.642Z,12.50
2023-02-04T02:03:01.166Z,12.40
2023-02-04T02:08:04.782Z,12.30
2023-02-04T02:13:08.372Z,12.30
2023-02-04T02:18:13.039Z,12.20
2023-02-04T02:23:44.126Z,11.90
2023-02-04T02:28:50.413Z,11.90
2023-02-04T02:33:52.411Z,11.80
2023-02-04T02:38:55.979Z,11.80
2023-02-04T02:43:58.028Z,11.70
2023-02-04T02:49:00.095Z,11.60
2023-02-04T02:54:02.137Z,11.50
2023-02-04T02:59:12.947Z,11.50
2023-02-04T03:04:15.373Z,11.50
2023-02-04T03:09:17.644Z,11.40
2023-02-04T03:14:24.164Z,11.40
2023-02-04T03:19:26.913Z,11.30
2023-02-04T03:24:30.505Z,11.20
2023-02-04T03:29:33.576Z,11.20
2023-02-04T03:34:35.633Z,11.20
2023-02-04T03:39:37.606Z,11.10
2023-02-04T03:44:39.581Z,11.10
2023-02-04T03:49:41.556Z,11.10
2023-02-04T03:54:43.591Z,11.10
2023-02-04T03:59:45.588Z,11.10
2023-02-04T04:04:47.578Z,11.00
2023-02-04T04:09:49.579Z,11.00
2023-02-04T04:14:51.731Z,11.00
2023-02-04T04:19:54.196Z,10.90
2023-02-04T04:24:56.514Z,10.90
2023-02-04T04:29:58.626Z,10.90
2023-02-04T04:35:00.685Z,10.80
2023-02-04T04:40:02.823Z,10.80
2023-02-04T04:45:08.828Z,10.80
2023-02-04T04:50:11.101Z,10.80
2023-02-04T04:55:13.129Z,10.80
2023-02-04T05:00:16.702Z,10.80
2023-02-04T05:05:18.767Z,10.80
2023-02-04T05:10:20.989Z,10.80
2023-02-04T05:15:23.002Z,10.80
2023-02-04T05:20:25.022Z,10.80
2023-02-04T05:25:27.769Z,10.80
2023-02-04T05:30:29.960Z,10.80
2023-02-04T05:35:32.073Z,10.70
2023-02-04T05:40:34.299Z,10.70
2023-02-04T05:45:36.549Z,10.70
2023-02-04T05:50:38.571Z,10.70
2023-02-04T05:55:43.281Z,10.70
2023-02-04T06:00:45.350Z,10.60
2023-02-04T06:05:47.396Z,10.60
2023-02-04T06:10:49.609Z,10.50
2023-02-04T06:15:51.621Z,10.50
2023-02-04T06:20:53.655Z,10.50
2023-02-04T06:25:55.711Z,10.50
2023-02-04T06:30:57.842Z,10.50
2023-02-04T06:36:00.014Z,10.40
2023-02-04T06:41:02.074Z,10.40
2023-02-04T06:46:04.158Z,10.40
2023-02-04T06:51:06.259Z,10.30
2023-02-04T06:56:08.329Z,10.30
2023-02-04T07:01:10.386Z,10.30
2023-02-04T07:06:12.514Z,10.30
2023-02-04T07:11:14.547Z,10.20
2023-02-04T07:16:16.623Z,10.30
2023-02-04T07:21:18.658Z,10.10
2023-02-04T07:26:20.778Z,10.10
2023-02-04T07:31:22.924Z,10.10
2023-02-04T07:36:26.268Z,10.10
2023-02-04T07:41:28.297Z,10.20
2023-02-04T07:46:30.389Z,10.20
2023-02-04T07:51:32.464Z,9.90
2023-02-04T07:56:34.634Z,10.20
2023-02-04T08:01:36.706Z,10.30
2023-02-04T08:06:38.787Z,10.50
2023-02-04T08:11:40.800Z,10.50
2023-02-04T08:16:42.857Z,10.60
2023-02-04T08:21:45.892Z,10.70
2023-02-04T08:26:47.914Z,10.80
2023-02-04T08:31:49.952Z,10.90
2023-02-04T08:36:52.051Z,11.00
2023-02-04T08:41:54.234Z,11.10
2023-02-04T08:46:56.321Z,11.20
2023-02-04T08:51:58.362Z,11.50
2023-02-04T08:57:00.699Z,11.40
2023-02-04T09:02:03.059Z,11.50
2023-02-04T09:07:05.055Z,11.20
2023-02-04T09:12:07.123Z,11.60
2023-02-04T09:17:09.156Z,11.80
2023-02-04T09:22:13.224Z,11.80
2023-02-04T09:27:15.298Z,11.90
2023-02-04T09:32:17.340Z,12.00
2023-02-04T09:37:19.321Z,12.10
2023-02-04T09:42:24.870Z,12.20
2023-02-04T09:47:27.457Z,12.20
2023-02-04T09:52:29.469Z,12.30
2023-02-04T09:57:31.422Z,12.40
2023-02-04T10:02:35.047Z,12.50
2023-02-04T10:07:37.087Z,12.10
2023-02-04T10:12:39.160Z,12.80
2023-02-04T10:17:41.711Z,12.90
2023-02-04T10:22:44.131Z,13.00
2023-02-04T10:27:49.434Z,13.10
2023-02-04T10:32:51.561Z,13.10
2023-02-04T10:38:03.845Z,13.40
2023-02-04T10:43:13.076Z,13.20
2023-02-04T10:48:19.013Z,13.20
2023-02-04T10:53:41.320Z,13.20
2023-02-04T10:58:43.506Z,13.20
2023-02-04T11:03:48.148Z,13.20
2023-02-04T11:08:53.418Z,13.20
2023-02-04T11:13:55.741Z,13.40
2023-02-04T11:18:59.318Z,13.40
2023-02-04T11:24:16.500Z,13.50
2023-02-04T11:29:26.249Z,13.40
2023-02-04T11:34:29.780Z,13.50
2023-02-04T11:39:34.127Z,13.60
2023-02-04T11:44:36.165Z,13.50
2023-02-04T11:49:38.208Z,13.60
2023-02-04T11:54:40.261Z,13.60
2023-02-04T11:59:42.322Z,13.70
2023-02-04T12:04:58.106Z,13.80
2023-02-04T12:10:10.716Z,13.90
2023-02-04T12:15:16.953Z,14.30
2023-02-04T12:20:18.955Z,14.30
2023-02-04T12:25:20.955Z,14.30
2023-02-04T12:30:23.751Z,14.50
2023-02-04T12:35:25.866Z,14.70
2023-02-04T12:40:28.208Z,15.40
2023-02-04T12:45:30.385Z,15.70
2023-02-04T12:50:32.648Z,15.90
2023-02-04T12:55:35.031Z,15.90
2023-02-04T13:00:37.334Z,15.90
2023-02-04T13:05:39.397Z,15.70
2023-02-04T13:10:41.442Z,15.80
2023-02-04T13:15:43.515Z,15.90
2023-02-04T13:20:46.402Z,15.90
2023-02-04T13:25:48.470Z,15.90
2023-02-04T13:30:50.678Z,15.90
2023-02-04T13:35:52.802Z,16.00
2023-02-04T13:40:54.814Z,16.20
2023-02-04T13:45:57.873Z,16.20
2023-02-04T13:50:59.989Z,16.10
2023-02-04T13:56:02.058Z,16.10
2023-02-04T14:01:04.229Z,15.80
2023-02-04T14:06:06.671Z,15.70
2023-02-04T14:11:08.714Z,15.70
2023-02-04T14:16:10.861Z,15.70
2023-02-04T14:21:12.903Z,15.80
2023-02-04T14:26:14.924Z,16.00
2023-02-04T14:31:17.210Z,16.30
2023-02-04T14:36:19.280Z,16.70
2023-02-04T14:41:21.380Z,16.80
2023-02-04T14:46:24.133Z,17.20
2023-02-04T14:51:26.207Z,17.10
2023-02-04T14:56:28.178Z,17.00
2023-02-04T15:01:31.143Z,16.70
2023-02-04T15:06:33.593Z,16.50
2023-02-04T15:11:35.611Z,16.30
2023-02-04T15:16:37.605Z,16.10
2023-02-04T15:21:39.556Z,15.80
2023-02-04T15:26:41.660Z,15.60
2023-02-04T15:31:43.757Z,15.40
2023-02-04T15:36:45.855Z,15.20
2023-02-04T15:41:47.881Z,14.90
2023-02-04T15:46:49.900Z,14.90
2023-02-04T15:51:51.998Z,14.50
2023-02-04T15:56:54.063Z,14.30
2023-02-04T16:01:56.085Z,14.00
2023-02-04T16:06:59.297Z,13.80
2023-02-04T16:12:01.328Z,13.60
2023-02-04T16:17:03.612Z,13.40
2023-02-04T16:22:06.256Z,13.20
2023-02-04T16:27:08.355Z,13.00
2023-02-04T16:32:10.475Z,12.70
2023-02-04T16:37:12.463Z,12.50
2023-02-04T16:42:14.892Z,12.30
2023-02-04T16:47:16.943Z,12.00
2023-02-04T16:52:18.988Z,11.80
2023-02-04T16:57:21.107Z,11.90
2023-02-04T17:02:23.157Z,11.60
2023-02-04T17:07:25.169Z,11.40
2023-02-04T17:12:27.140Z,11.30
2023-02-04T17:17:29.195Z,11.20
2023-02-04T17:22:31.182Z,11.10
2023-02-04T17:27:33.175Z,10.90
2023-02-04T17:32:35.271Z,10.80
2023-02-04T17:37:37.380Z,10.70
2023-02-04T17:42:39.965Z,10.50
2023-02-04T17:47:41.985Z,10.40
2023-02-04T17:52:44.088Z,10.30
2023-02-04T17:57:46.027Z,10.50
2023-02-04T18:02:49.932Z,10.00
2023-02-04T18:08:05.770Z,9.70
2023-02-04T18:13:14.540Z,9.80
2023-02-04T18:18:22.709Z,9.70
2023-02-04T18:23:25.509Z,9.50
2023-02-04T18:28:27.518Z,9.40
2023-02-04T18:33:32.025Z,9.40
2023-02-04T18:38:39.178Z,9.30
2023-02-04T18:43:41.424Z,9.20
2023-02-04T18:48:46.388Z,9.00
2023-02-04T18:53:48.578Z,9.00
2023-02-04T18:58:51.385Z,9.00
2023-02-04T19:03:55.711Z,9.00
2023-02-04T19:09:05.236Z,9.00
2023-02-04T19:14:26.010Z,9.10
2023-02-04T19:19:34.077Z,9.10
2023-02-04T19:24:36.077Z,9.20
2023-02-04T19:29:39.399Z,9.20
2023-02-04T19:34:41.410Z,9.20
2023-02-04T19:39:43.453Z,9.60
2023-02-04T19:44:46.443Z,9.30
2023-02-04T19:49:48.414Z,9.50
2023-02-04T19:54:50.421Z,9.30
2023-02-04T19:59:56.273Z,9.30
2023-02-04T20:04:58.398Z,9.30
2023-02-04T20:10:06.558Z,9.40
2023-02-04T20:15:16.327Z,9.30
2023-02-04T20:20:29.588Z,9.10
2023-02-04T20:25:34.901Z,9.10
2023-02-04T20:30:37.229Z,8.90
2023-02-04T20:35:39.228Z,8.90
2023-02-04T20:40:42.582Z,8.80
2023-02-04T20:45:50.187Z,8.60
2023-02-04T20:50:53.607Z,8.50
2023-02-04T20:56:03.618Z,8.50
2023-02-04T21:01:24.522Z,8.30
2023-02-04T21:06:31.738Z,8.10
2023-02-04T21:11:33.735Z,8.00
2023-02-04T21:16:35.727Z,7.90
2023-02-04T21:21:37.839Z,7.80
2023-02-04T21:26:40.188Z,7.80
2023-02-04T21:31:42.381Z,7.70
2023-02-04T21:36:44.405Z,7.60
2023-02-04T21:41:46.368Z,7.50
2023-02-04T21:46:48.347Z,7.40
2023-02-04T21:51:50.344Z,7.30
2023-02-04T21:56:52.381Z,7.30
2023-02-04T22:01:54.371Z,7.30
2023-02-04T22:06:56.519Z,7.10
2023-02-04T22:11:58.578Z,6.90
2023-02-04T22:17:00.699Z,6.80
2023-02-04T22:22:03.043Z,6.70
2023-02-04T22:27:05.551Z,6.50
2023-02-04T22:32:07.608Z,6.40
2023-02-04T22:37:09.655Z,6.30
2023-02-04T22:42:11.709Z,6.30
2023-02-04T22:47:13.780Z,6.10
2023-02-04T22:52:15.808Z,6.30
2023-02-04T22:57:17.840Z,5.90
2023-02-04T23:02:19.956Z,5.80
2023-02-04T23:07:22.144Z,5.80
2023-02-04T23:12:24.197Z,5.70
2023-02-04T23:17:26.252Z,5.70
2023-02-04T23:22:28.286Z,5.60
2023-02-04T23:27:30.405Z,5.40
2023-02-04T23:32:32.428Z,5.40
2023-02-04T23:37:34.910Z,5.30
2023-02-04T23:42:36.931Z,5.20
2023-02-04T23:47:38.993Z,5.20
2023-02-04T23:52:41.138Z,5.00
2023-02-04T23:57:43.518Z,5.00
